Time;durP1;ratioP1;P1;durP2;ratioP2;P2;SDS_P1;SDS_P2;PMS_P1;PMS_P2;Temp;Humidity;BMP_temperature;BMP_pressure;BME280_temperature;BME280_humidity;BME280_pressure;Samples;Min_cycle;Max_cycle;Signal;HPM_P1;HPM_P2
2022/11/19 00:00:41;;;;;;;9.80;5.00;;;7.10;99.90;;;;;;5015422;28;20186;-85
2022/11/19 00:03:07;;;;;;;5.80;4.13;;;7.10;99.90;;;;;;5032521;28;20177;-86
2022/11/19 00:05:40;;;;;;;6.57;4.07;;;7.10;99.90;;;;;;5014295;28;20305;-86
2022/11/19 00:08:07;;;;;;;6.93;4.50;;;7.10;99.90;;;;;;5014286;28;20217;-86
2022/11/19 00:10:37;;;;;;;9.60;5.23;;;7.10;99.90;;;;;;5031397;28;20278;-86
2022/11/19 00:13:04;;;;;;;6.53;4.07;;;7.10;99.90;;;;;;5031294;28;20245;-86
2022/11/19 00:15:32;;;;;;;6.53;3.90;;;7.10;99.90;;;;;;5031549;28;20214;-86
2022/11/19 00:17:59;;;;;;;7.17;3.53;;;7.10;99.90;;;;;;5031554;28;20236;-86
2022/11/19 00:20:25;;;;;;;5.83;3.87;;;7.00;99.90;;;;;;5030667;28;20216;-86
2022/11/19 00:22:53;;;;;;;4.73;2.50;;;7.10;99.90;;;;;;5014535;28;20193;-86
2022/11/19 00:25:23;;;;;;;5.50;2.70;;;7.10;99.90;;;;;;5014709;28;20317;-86
2022/11/19 00:27:49;;;;;;;6.47;2.93;;;7.00;99.90;;;;;;5014657;28;20231;-86
2022/11/19 00:30:16;;;;;;;5.70;3.40;;;7.00;99.90;;;;;;5031257;28;20178;-86
2022/11/19 00:32:42;;;;;;;6.93;3.77;;;7.00;99.90;;;;;;5031106;28;20171;-86
2022/11/19 00:35:08;;;;;;;7.13;3.70;;;7.00;99.90;;;;;;5014958;28;20262;-86
2022/11/19 00:37:34;;;;;;;5.20;3.20;;;7.00;99.90;;;;;;5032086;28;20178;-86
2022/11/19 00:40:00;;;;;;;7.27;4.10;;;7.00;99.90;;;;;;5014631;28;20182;-86
2022/11/19 00:42:26;;;;;;;7.63;3.83;;;7.00;99.90;;;;;;5014735;28;20183;-86
2022/11/19 00:44:52;;;;;;;5.23;3.00;;;7.00;99.90;;;;;;5014559;28;20203;-86
2022/11/19 00:47:18;;;;;;;5.23;3.73;;;7.00;99.90;;;;;;5030709;28;20428;-86
2022/11/19 00:49:44;;;;;;;7.27;3.27;;;7.00;99.90;;;;;;5014525;28;20182;-85
2022/11/19 00:52:10;;;;;;;3.90;2.60;;;7.00;99.90;;;;;;5015306;28;20177;-86
2022/11/19 00:54:36;;;;;;;3.23;2.43;;;6.90;99.90;;;;;;5032677;28;20203;-86
2022/11/19 00:57:02;;;;;;;2.37;1.93;;;6.90;99.90;;;;;;5016717;28;20180;-85
2022/11/19 00:59:28;;;;;;;3.43;2.07;;;6.90;99.90;;;;;;5033190;28;20181;-86
2022/11/19 01:01:54;;;;;;;1.77;1.60;;;6.90;99.90;;;;;;5015861;28;20186;-86
2022/11/19 01:04:21;;;;;;;2.60;2.03;;;6.90;99.90;;;;;;5031534;28;20202;-86
2022/11/19 01:06:46;;;;;;;4.50;2.60;;;6.90;99.90;;;;;;5047213;28;20202;-86
2022/11/19 01:09:12;;;;;;;5.07;2.10;;;6.90;99.90;;;;;;5014473;28;20182;-86
2022/11/19 01:11:38;;;;;;;2.40;2.03;;;6.90;99.90;;;;;;5030871;28;20239;-86
2022/11/19 01:14:05;;;;;;;3.33;1.97;;;6.90;99.90;;;;;;5031197;28;20182;-86
2022/11/19 01:16:37;;;;;;;2.80;2.23;;;6.90;99.90;;;;;;5033288;28;20213;-86
2022/11/19 01:19:04;;;;;;;4.37;2.70;;;6.90;99.90;;;;;;5017671;28;20269;-86
2022/11/19 01:21:33;;;;;;;3.03;2.30;;;6.90;99.90;;;;;;5035542;28;20276;-86
2022/11/19 01:24:00;;;;;;;3.40;2.37;;;6.90;99.90;;;;;;5034224;28;20201;-86
2022/11/19 01:26:26;;;;;;;3.07;2.20;;;6.90;99.90;;;;;;5034259;28;20187;-86
2022/11/19 01:28:54;;;;;;;4.43;2.63;;;6.90;99.90;;;;;;5017332;28;20182;-85
2022/11/19 01:31:24;;;;;;;3.33;2.50;;;7.00;99.90;;;;;;5034039;28;20240;-86
2022/11/19 01:33:51;;;;;;;3.87;2.40;;;6.90;99.90;;;;;;5017646;28;20186;-86
2022/11/19 01:36:23;;;;;;;3.77;2.53;;;6.90;99.90;;;;;;5033959;28;20214;-86
2022/11/19 01:38:51;;;;;;;4.97;2.73;;;7.00;99.90;;;;;;5035126;28;20707;-86
2022/11/19 01:41:23;;;;;;;3.73;2.23;;;7.00;99.90;;;;;;5017414;28;20188;-85
2022/11/19 01:43:50;;;;;;;3.00;2.13;;;7.00;99.90;;;;;;5016868;28;20236;-86
2022/11/19 01:46:25;;;;;;;3.63;2.10;;;7.00;99.90;;;;;;5017631;28;20219;-86
2022/11/19 01:49:17;;;;;;;3.67;2.10;;;7.00;99.90;;;;;;5033693;28;20237;-86
2022/11/19 01:51:54;;;;;;;2.63;1.97;;;6.90;99.90;;;;;;5033936;28;20178;-86
2022/11/19 01:54:28;;;;;;;2.20;1.70;;;6.90;99.90;;;;;;5017079;28;20237;-86
2022/11/19 01:56:59;;;;;;;2.50;1.70;;;7.00;99.90;;;;;;5016828;28;20235;-86
2022/11/19 01:59:26;;;;;;;4.00;2.10;;;7.00;99.90;;;;;;5017145;28;20202;-85
2022/11/19 02:01:52;;;;;;;2.57;1.90;;;6.90;99.90;;;;;;5033472;28;20539;-85
2022/11/19 02:04:19;;;;;;;4.17;2.30;;;6.90;99.90;;;;;;5016822;28;20216;-86
2022/11/19 02:06:46;;;;;;;5.20;2.40;;;6.90;99.90;;;;;;5033140;28;20217;-86
2022/11/19 02:09:12;;;;;;;2.93;2.10;;;6.90;99.90;;;;;;5050314;28;20260;-86
2022/11/19 02:11:51;;;;;;;1.63;1.50;;;7.00;99.90;;;;;;5033579;28;20269;-86
2022/11/19 02:14:35;;;;;;;2.43;1.60;;;6.90;99.90;;;;;;5032799;28;20211;-85
2022/11/19 02:17:20;;;;;;;2.90;2.00;;;7.00;99.90;;;;;;5032445;28;20186;-86
2022/11/19 02:20:28;;;;;;;4.17;1.80;;;7.00;99.90;;;;;;5017161;28;20182;-86
2022/11/19 02:23:09;;;;;;;4.30;1.90;;;7.00;99.90;;;;;;5016672;28;20254;-86
2022/11/19 02:25:38;;;;;;;2.47;1.27;;;7.00;99.90;;;;;;5032846;28;20862;-86
2022/11/19 02:28:25;;;;;;;3.50;1.50;;;7.00;99.90;;;;;;5015350;28;20174;-86
2022/11/19 02:30:55;;;;;;;3.13;1.50;;;7.00;99.90;;;;;;5033357;28;20174;-86
2022/11/19 02:33:28;;;;;;;4.23;1.63;;;7.00;99.90;;;;;;5016397;28;20189;-86
2022/11/19 02:36:18;;;;;;;3.10;1.50;;;7.00;99.90;;;;;;5006538;28;20228;-86
2022/11/19 02:39:07;;;;;;;2.20;1.50;;;7.00;99.90;;;;;;5016402;28;20217;-86
2022/11/19 02:41:42;;;;;;;3.13;1.60;;;7.00;99.90;;;;;;5032935;28;20647;-86
2022/11/19 02:47:16;;;;;;;2.10;1.10;;;7.00;99.90;;;;;;5032488;28;20213;-86
2022/11/19 02:49:44;;;;;;;2.63;1.10;;;7.00;99.90;;;;;;5032953;28;20170;-86
2022/11/19 02:52:12;;;;;;;1.50;1.40;;;7.10;99.90;;;;;;5016411;28;20302;-85
2022/11/19 02:54:38;;;;;;;1.47;1.30;;;7.00;99.90;;;;;;5016021;28;20269;-86
2022/11/19 02:57:04;;;;;;;2.00;1.20;;;7.00;99.90;;;;;;5015781;28;20272;-86
2022/11/19 03:05:12;;;;;;;4.00;1.30;;;7.00;99.90;;;;;;5032530;28;20309;-86
2022/11/19 03:07:41;;;;;;;2.07;1.30;;;7.00;99.90;;;;;;5032157;28;20232;-86
2022/11/19 03:10:09;;;;;;;1.67;1.27;;;7.00;99.90;;;;;;5032469;28;20333;-86
2022/11/19 03:12:47;;;;;;;2.90;1.30;;;7.00;99.90;;;;;;5032256;28;20263;-86
2022/11/19 03:18:45;;;;;;;1.73;1.33;;;7.00;99.90;;;;;;5033083;28;20177;-86
2022/11/19 03:22:05;;;;;;;1.30;1.20;;;7.00;99.90;;;;;;5016053;28;20204;-86
2022/11/19 03:24:57;;;;;;;2.50;1.13;;;7.00;99.90;;;;;;5014238;28;20220;-86
2022/11/19 03:27:35;;;;;;;2.70;1.50;;;7.00;99.90;;;;;;5014677;28;20217;-86
2022/11/19 03:30:02;;;;;;;3.23;2.30;;;6.90;99.90;;;;;;5032104;28;20192;-86
2022/11/19 03:32:33;;;;;;;4.40;2.90;;;6.90;99.90;;;;;;5015483;28;20277;-86
2022/11/19 03:35:06;;;;;;;4.47;2.67;;;6.90;99.90;;;;;;5031832;28;20209;-86
2022/11/19 03:37:36;;;;;;;3.80;2.20;;;6.90;99.90;;;;;;5031590;28;20178;-86
2022/11/19 03:40:04;;;;;;;5.53;2.80;;;6.90;99.90;;;;;;5048330;28;20174;-86
2022/11/19 03:42:31;;;;;;;4.30;2.60;;;6.90;99.90;;;;;;5031886;28;20177;-86
2022/11/19 03:45:09;;;;;;;2.83;2.00;;;6.90;99.90;;;;;;5031641;28;20217;-86
2022/11/19 03:47:36;;;;;;;3.63;1.80;;;6.90;99.90;;;;;;5048251;28;20193;-86
2022/11/19 03:50:09;;;;;;;2.50;2.27;;;6.90;99.90;;;;;;5031169;28;20192;-86
2022/11/19 03:52:35;;;;;;;2.83;2.07;;;6.90;99.90;;;;;;5031151;28;20181;-86
2022/11/19 03:55:01;;;;;;;4.47;2.87;;;6.90;99.90;;;;;;5015003;28;20201;-86
2022/11/19 03:57:27;;;;;;;5.70;2.83;;;6.80;99.90;;;;;;5031410;28;20285;-85
2022/11/19 03:59:53;;;;;;;7.03;2.80;;;6.80;99.90;;;;;;5031470;28;20183;-86
2022/11/19 04:02:19;;;;;;;4.73;2.97;;;6.80;99.90;;;;;;5031543;28;20273;-86
2022/11/19 04:04:45;;;;;;;3.03;2.20;;;6.80;99.90;;;;;;5015001;28;20287;-86
2022/11/19 04:07:11;;;;;;;2.60;1.70;;;6.80;99.90;;;;;;5014587;28;20208;-86
2022/11/19 04:09:38;;;;;;;1.70;1.40;;;6.80;99.90;;;;;;5031535;28;20175;-86
2022/11/19 04:12:05;;;;;;;2.73;1.40;;;6.80;99.90;;;;;;5031479;28;20213;-85
2022/11/19 04:14:32;;;;;;;2.23;1.40;;;6.80;99.90;;;;;;5030880;28;20280;-86
2022/11/19 04:16:58;;;;;;;2.20;1.60;;;6.80;99.90;;;;;;5031695;28;20185;-86
2022/11/19 04:19:24;;;;;;;2.63;1.50;;;6.80;99.90;;;;;;5031996;28;20186;-86
2022/11/19 04:21:50;;;;;;;1.87;1.30;;;6.80;99.90;;;;;;5032691;28;20187;-86
2022/11/19 04:24:16;;;;;;;1.90;1.40;;;6.80;99.90;;;;;;5016950;28;20209;-86
2022/11/19 04:26:42;;;;;;;1.70;1.30;;;6.80;99.90;;;;;;5016029;28;20206;-86
2022/11/19 04:29:08;;;;;;;2.33;1.20;;;6.80;99.90;;;;;;5032347;28;20181;-86
2022/11/19 04:31:34;;;;;;;3.70;1.40;;;6.80;99.90;;;;;;5015221;28;20217;-85
2022/11/19 04:34:00;;;;;;;1.93;1.50;;;6.80;99.90;;;;;;5032144;28;20177;-86
2022/11/19 04:36:26;;;;;;;3.10;1.93;;;6.80;99.90;;;;;;5031031;28;20214;-86
2022/11/19 04:38:52;;;;;;;3.43;1.80;;;6.80;99.90;;;;;;5031294;28;20178;-86
2022/11/19 04:41:17;;;;;;;1.90;1.40;;;6.80;99.90;;;;;;5014755;28;20185;-86
2022/11/19 04:43:43;;;;;;;3.70;2.03;;;6.80;99.90;;;;;;5015084;28;20197;-85
2022/11/19 04:46:09;;;;;;;2.30;1.70;;;6.80;99.90;;;;;;5014648;28;20224;-86
2022/11/19 04:48:35;;;;;;;3.10;1.70;;;6.80;99.90;;;;;;5031061;28;20175;-86
2022/11/19 04:51:01;;;;;;;2.83;1.60;;;6.80;99.90;;;;;;5016429;28;20201;-86
2022/11/19 04:53:27;;;;;;;2.80;2.00;;;6.90;99.90;;;;;;5018433;28;20184;-86
2022/11/19 04:55:53;;;;;;;3.07;2.27;;;6.90;99.90;;;;;;5018566;28;20210;-86
2022/11/19 04:58:18;;;;;;;2.30;1.60;;;6.90;99.90;;;;;;5034739;28;20186;-86
2022/11/19 05:00:44;;;;;;;3.47;1.90;;;6.90;99.90;;;;;;5034933;28;20206;-86
2022/11/19 05:03:10;;;;;;;2.70;1.90;;;7.00;99.90;;;;;;5034755;28;20198;-85
2022/11/19 05:05:36;;;;;;;3.60;1.87;;;6.90;99.90;;;;;;5009244;28;20211;-86
2022/11/19 05:08:02;;;;;;;4.10;1.80;;;6.90;99.90;;;;;;5015060;28;20179;-85
2022/11/19 05:10:28;;;;;;;3.57;2.20;;;6.90;99.90;;;;;;5031972;28;20183;-86
2022/11/19 05:12:53;;;;;;;4.27;1.60;;;6.90;99.90;;;;;;5031578;28;20214;-86
2022/11/19 05:15:20;;;;;;;3.03;1.50;;;6.90;99.90;;;;;;5037871;28;20201;-85
2022/11/19 05:17:46;;;;;;;2.53;1.30;;;7.00;99.90;;;;;;5017803;28;20301;-86
2022/11/19 05:20:12;;;;;;;2.33;1.30;;;6.90;99.90;;;;;;5018094;28;20214;-86
2022/11/19 05:22:38;;;;;;;1.90;1.30;;;6.90;99.90;;;;;;5034921;28;20287;-86
2022/11/19 05:25:04;;;;;;;1.80;1.33;;;6.90;99.90;;;;;;5017880;28;20315;-86
2022/11/19 05:27:30;;;;;;;2.00;1.43;;;6.90;99.90;;;;;;5018049;28;20238;-86
2022/11/19 05:29:56;;;;;;;1.93;1.37;;;6.90;99.90;;;;;;5034987;28;20210;-85
2022/11/19 05:32:22;;;;;;;3.43;1.33;;;6.90;99.90;;;;;;5035721;28;20178;-86
2022/11/19 05:34:48;;;;;;;1.43;1.33;;;7.00;99.90;;;;;;5017810;28;20244;-86
2022/11/19 05:37:14;;;;;;;4.07;1.70;;;7.00;99.90;;;;;;5017785;28;20264;-86
2022/11/19 05:39:40;;;;;;;3.47;1.60;;;7.00;99.90;;;;;;5017611;28;20178;-86
2022/11/19 05:42:05;;;;;;;2.87;2.10;;;7.00;99.90;;;;;;5017530;28;20182;-86
2022/11/19 05:44:31;;;;;;;2.70;2.00;;;7.10;99.90;;;;;;5007955;28;20215;-86
2022/11/19 05:46:58;;;;;;;2.37;2.17;;;7.10;99.90;;;;;;4998053;28;20203;-86
2022/11/19 05:49:24;;;;;;;2.70;1.97;;;7.10;99.90;;;;;;4998312;28;20184;-86
2022/11/19 05:51:50;;;;;;;2.33;1.70;;;7.10;99.90;;;;;;5015581;28;20178;-87
2022/11/19 05:54:16;;;;;;;2.47;1.90;;;7.10;99.90;;;;;;5013872;28;20200;-86
2022/11/19 05:56:42;;;;;;;2.57;1.77;;;7.00;99.90;;;;;;5013298;28;20190;-86
2022/11/19 05:59:08;;;;;;;2.43;1.60;;;7.00;99.90;;;;;;5033770;28;20182;-86
2022/11/19 06:01:34;;;;;;;2.40;1.60;;;7.00;99.90;;;;;;5016984;28;20375;-87
2022/11/19 06:04:00;;;;;;;3.03;1.60;;;7.00;99.90;;;;;;5033643;28;20250;-87
2022/11/19 06:06:26;;;;;;;2.23;1.70;;;7.00;99.90;;;;;;5050129;28;20208;-87
2022/11/19 06:08:52;;;;;;;2.33;1.40;;;7.00;99.90;;;;;;5033474;28;20182;-86
2022/11/19 06:14:03;;;;;;;1.63;1.53;;;6.90;99.90;;;;;;5049938;28;20171;-86
2022/11/19 06:16:29;;;;;;;2.60;1.63;;;7.00;99.90;;;;;;5016700;28;20189;-86
2022/11/19 06:18:55;;;;;;;1.70;1.33;;;7.00;99.90;;;;;;5050238;28;20178;-86
2022/11/19 06:21:21;;;;;;;3.40;1.80;;;6.90;99.90;;;;;;5033372;28;20182;-86
2022/11/19 06:23:46;;;;;;;3.53;1.80;;;6.90;99.90;;;;;;5049665;28;20217;-86
2022/11/19 06:26:24;;;;;;;4.07;2.80;;;6.90;99.90;;;;;;5016592;28;20242;-86
2022/11/19 06:28:50;;;;;;;4.17;2.90;;;7.00;99.90;;;;;;5033324;28;20206;-86
2022/11/19 06:31:17;;;;;;;5.37;2.60;;;6.90;99.90;;;;;;5030334;28;20185;-86
2022/11/19 06:33:43;;;;;;;2.40;1.80;;;6.90;99.90;;;;;;5014782;28;20182;-86
2022/11/19 06:36:09;;;;;;;3.00;1.70;;;6.90;99.90;;;;;;5006741;28;20272;-86
2022/11/19 06:38:35;;;;;;;2.70;1.60;;;6.90;99.90;;;;;;5015018;28;20179;-86
2022/11/19 06:41:01;;;;;;;5.07;2.03;;;6.90;99.90;;;;;;5014683;28;20244;-86
2022/11/19 06:43:26;;;;;;;5.60;2.00;;;6.90;99.90;;;;;;5016190;28;20252;-86
2022/11/19 06:45:52;;;;;;;1.60;1.50;;;6.90;99.90;;;;;;5032545;28;20211;-86
2022/11/19 06:48:18;;;;;;;3.87;2.30;;;6.90;99.90;;;;;;5032662;28;20166;-86
2022/11/19 06:50:44;;;;;;;3.67;1.97;;;6.90;99.90;;;;;;5016106;28;20178;-86
2022/11/19 06:53:11;;;;;;;15.57;6.77;;;6.90;99.90;;;;;;5016500;28;20175;-86
2022/11/19 06:55:37;;;;;;;5.93;2.80;;;6.90;99.90;;;;;;5015953;28;20241;-86
2022/11/19 06:58:04;;;;;;;5.60;4.60;;;6.90;99.90;;;;;;5016198;28;20269;-86
2022/11/19 07:00:30;;;;;;;3.93;3.30;;;6.90;99.90;;;;;;5016279;28;20205;-86
2022/11/19 07:02:56;;;;;;;3.50;2.67;;;6.90;99.90;;;;;;5015993;28;20185;-86
2022/11/19 07:05:28;;;;;;;4.20;3.43;;;6.90;99.90;;;;;;5015887;28;20200;-85
2022/11/19 07:07:53;;;;;;;4.43;2.93;;;7.00;99.90;;;;;;5016011;28;20200;-86
2022/11/19 07:10:19;;;;;;;4.30;3.00;;;7.00;99.90;;;;;;5032288;28;20174;-86
2022/11/19 07:12:45;;;;;;;3.53;2.40;;;7.00;99.90;;;;;;5015537;28;20220;-86
2022/11/19 07:15:11;;;;;;;2.13;1.87;;;7.10;99.90;;;;;;5032088;28;20206;-86
2022/11/19 07:17:37;;;;;;;3.83;2.90;;;7.10;99.90;;;;;;5004525;28;20186;-86
2022/11/19 07:20:07;;;;;;;4.97;2.67;;;7.10;99.90;;;;;;5012392;28;20186;-86
2022/11/19 07:22:33;;;;;;;9.50;6.13;;;7.10;99.90;;;;;;5013444;28;20258;-86
2022/11/19 07:24:58;;;;;;;6.90;3.40;;;7.10;99.90;;;;;;5015343;28;20300;-87
2022/11/19 07:27:24;;;;;;;4.83;2.70;;;7.10;99.90;;;;;;5015357;28;20243;-86
2022/11/19 07:29:50;;;;;;;4.80;3.80;;;7.10;99.90;;;;;;5017836;28;20232;-86
2022/11/19 07:32:25;;;;;;;8.40;4.07;;;7.10;99.90;;;;;;5016123;28;20541;-86
2022/11/19 07:34:51;;;;;;;6.80;3.53;;;7.10;99.90;;;;;;5015794;28;20210;-86
2022/11/19 07:37:20;;;;;;;3.80;3.10;;;7.10;99.90;;;;;;5015400;28;20182;-87
2022/11/19 07:39:46;;;;;;;2.57;2.37;;;7.10;99.90;;;;;;5014886;28;20300;-83
2022/11/19 07:44:56;;;;;;;4.77;3.20;;;7.20;99.90;;;;;;5032486;28;20202;-84
2022/11/19 07:47:22;;;;;;;4.80;3.07;;;7.20;99.90;;;;;;5015610;28;20213;-83
2022/11/19 07:49:48;;;;;;;3.40;3.10;;;7.20;99.90;;;;;;5015790;28;20182;-78
2022/11/19 07:52:14;;;;;;;3.93;2.90;;;7.20;99.90;;;;;;5032417;28;20182;-84
2022/11/19 07:54:40;;;;;;;3.97;2.93;;;7.30;99.90;;;;;;5015622;28;20199;-87
2022/11/19 07:57:06;;;;;;;6.20;4.73;;;7.30;99.90;;;;;;5015713;28;20194;-83
2022/11/19 07:59:32;;;;;;;4.80;3.80;;;7.30;99.90;;;;;;5032123;28;20288;-81
2022/11/19 08:01:58;;;;;;;3.53;3.10;;;7.30;99.90;;;;;;5015374;28;20248;-87
2022/11/19 08:04:26;;;;;;;4.10;2.27;;;7.30;99.90;;;;;;5015084;28;20213;-86
2022/11/19 08:06:52;;;;;;;3.13;2.77;;;7.30;99.90;;;;;;5013902;28;20686;-87
2022/11/19 08:09:20;;;;;;;7.63;3.13;;;7.30;99.90;;;;;;5031230;28;20181;-87
2022/11/19 08:11:46;;;;;;;4.70;3.23;;;7.30;99.90;;;;;;5014614;28;20192;-87
2022/11/19 08:14:13;;;;;;;5.77;2.80;;;7.30;99.90;;;;;;5013881;28;20179;-86
2022/11/19 08:19:24;;;;;;;5.23;2.60;;;7.40;99.90;;;;;;5031149;28;20208;-86
2022/11/19 08:21:50;;;;;;;2.87;2.03;;;7.40;99.90;;;;;;5014942;28;20181;-87
2022/11/19 08:24:18;;;;;;;3.17;1.87;;;7.40;99.90;;;;;;5015438;28;20274;-86
2022/11/19 08:26:45;;;;;;;3.27;1.70;;;7.50;99.90;;;;;;5035105;28;20232;-86
2022/11/19 08:29:13;;;;;;;2.53;1.90;;;7.50;99.90;;;;;;5019015;28;20178;-87
2022/11/19 08:31:40;;;;;;;3.87;2.23;;;7.50;99.90;;;;;;5018987;28;20189;-86
2022/11/19 08:34:06;;;;;;;3.83;2.60;;;7.60;99.90;;;;;;5018570;28;20277;-86
2022/11/19 08:36:32;;;;;;;3.70;2.10;;;7.60;99.90;;;;;;5018661;28;20276;-86
2022/11/19 08:39:02;;;;;;;4.10;1.63;;;7.60;99.90;;;;;;5018696;28;20210;-87
2022/11/19 08:44:13;;;;;;;3.90;1.70;;;7.60;99.90;;;;;;5041158;28;20197;-86
2022/11/19 08:46:40;;;;;;;2.23;1.90;;;7.60;99.90;;;;;;5057225;28;20282;-86
2022/11/19 08:49:06;;;;;;;4.07;2.37;;;7.60;99.90;;;;;;5035702;28;20330;-86
2022/11/19 08:51:32;;;;;;;3.20;2.20;;;7.60;99.90;;;;;;5018711;28;20194;-86
2022/11/19 08:53:58;;;;;;;6.53;1.83;;;7.60;99.90;;;;;;5018517;28;20193;-87
2022/11/19 08:56:24;;;;;;;4.30;2.50;;;7.60;99.90;;;;;;5018523;28;20324;-86
2022/11/19 08:58:52;;;;;;;6.07;3.07;;;7.60;99.90;;;;;;5018319;28;20178;-86
2022/11/19 09:01:18;;;;;;;5.17;2.67;;;7.60;99.90;;;;;;5018423;28;20187;-87
2022/11/19 09:03:44;;;;;;;5.20;3.00;;;7.60;99.90;;;;;;5018349;28;20182;-86
2022/11/19 09:06:10;;;;;;;4.77;3.10;;;7.50;99.90;;;;;;5018009;28;20217;-86
2022/11/19 09:08:37;;;;;;;7.10;4.00;;;7.50;99.90;;;;;;5018101;28;20175;-86
2022/11/19 09:11:17;;;;;;;4.60;2.70;;;7.60;99.90;;;;;;5018230;28;20236;-86
2022/11/19 09:13:43;;;;;;;2.30;1.70;;;7.50;99.90;;;;;;5018459;28;20178;-86
2022/11/19 09:16:10;;;;;;;2.23;1.77;;;7.50;99.90;;;;;;5018162;28;20213;-86
2022/11/19 09:18:38;;;;;;;1.93;1.70;;;7.50;99.90;;;;;;5034589;28;20263;-86
2022/11/19 09:21:09;;;;;;;2.07;1.50;;;7.50;99.90;;;;;;5017905;28;20182;-86
2022/11/19 09:23:35;;;;;;;5.10;2.23;;;7.50;99.90;;;;;;5018170;28;20182;-86
2022/11/19 09:26:10;;;;;;;2.37;1.80;;;7.60;99.90;;;;;;5018102;28;20249;-86
2022/11/19 09:28:36;;;;;;;3.30;1.97;;;7.60;99.90;;;;;;5034964;28;20239;-86
2022/11/19 09:31:05;;;;;;;3.40;1.63;;;7.60;99.90;;;;;;5019488;28;20245;-86
2022/11/19 09:33:34;;;;;;;3.47;1.50;;;7.70;99.90;;;;;;5020292;28;20189;-86
2022/11/19 09:36:00;;;;;;;2.97;1.73;;;7.70;99.90;;;;;;5035065;28;20208;-86
2022/11/19 09:38:26;;;;;;;3.20;1.97;;;7.80;99.90;;;;;;5017155;28;20187;-86
2022/11/19 09:40:55;;;;;;;3.53;1.90;;;7.80;99.90;;;;;;5017730;28;20194;-86
2022/11/19 09:43:45;;;;;;;6.20;2.50;;;7.80;99.90;;;;;;5034309;28;20179;-87
2022/11/19 09:46:20;;;;;;;3.27;1.87;;;7.90;99.90;;;;;;5017659;28;20214;-86
2022/11/19 09:48:47;;;;;;;3.07;2.00;;;7.90;99.90;;;;;;5017396;28;20185;-86
2022/11/19 09:51:22;;;;;;;3.23;2.53;;;7.90;99.90;;;;;;5017363;28;20182;-86
2022/11/19 09:54:11;;;;;;;3.03;2.73;;;7.90;99.90;;;;;;5017503;28;20269;-86
2022/11/19 09:56:47;;;;;;;3.70;2.40;;;8.00;99.90;;;;;;5017378;28;20185;-86
2022/11/19 09:59:29;;;;;;;4.77;3.50;;;8.00;99.90;;;;;;5017307;28;20205;-86
2022/11/19 10:01:55;;;;;;;5.57;3.17;;;8.10;99.90;;;;;;5033847;28;20190;-86
2022/11/19 10:04:23;;;;;;;6.03;2.37;;;8.10;99.90;;;;;;5017030;28;20686;-86
2022/11/19 10:06:58;;;;;;;3.60;2.53;;;8.20;99.90;;;;;;5033384;28;20210;-86
2022/11/19 10:09:39;;;;;;;4.40;2.83;;;8.20;99.90;;;;;;5033482;28;20166;-87
2022/11/19 10:12:24;;;;;;;3.20;2.33;;;8.20;99.90;;;;;;5033027;28;20163;-86
2022/11/19 10:15:09;;;;;;;2.10;1.47;;;8.20;99.90;;;;;;5033218;28;20222;-86
2022/11/19 10:17:49;;;;;;;4.30;2.47;;;8.20;99.90;;;;;;5033116;28;20214;-86
2022/11/19 10:20:27;;;;;;;3.23;2.77;;;8.30;99.90;;;;;;5033402;28;20225;-86
2022/11/19 10:23:01;;;;;;;2.00;1.80;;;8.30;99.90;;;;;;5033294;28;20184;-86
2022/11/19 10:25:41;;;;;;;2.00;1.30;;;8.30;99.90;;;;;;5033255;28;20214;-86
2022/11/19 10:28:25;;;;;;;1.20;1.10;;;8.30;99.90;;;;;;5033344;28;20193;-86
2022/11/19 10:30:54;;;;;;;1.70;1.20;;;8.30;99.90;;;;;;5032972;28;20297;-86
2022/11/19 10:33:32;;;;;;;3.00;1.37;;;8.40;99.90;;;;;;5033401;28;20179;-86
2022/11/19 10:36:04;;;;;;;3.57;1.60;;;8.40;99.90;;;;;;5033087;28;20205;-86
2022/11/19 10:38:56;;;;;;;1.77;1.30;;;8.50;99.90;;;;;;5033284;28;20171;-86
2022/11/19 10:41:39;;;;;;;2.47;1.90;;;8.60;99.90;;;;;;5032603;28;20213;-86
2022/11/19 10:44:36;;;;;;;1.33;1.13;;;8.90;99.90;;;;;;5032740;28;20175;-86
2022/11/19 10:47:04;;;;;;;2.27;1.47;;;9.00;99.90;;;;;;5032559;28;20706;-86
2022/11/19 10:49:41;;;;;;;2.43;1.00;;;9.20;99.90;;;;;;5032098;28;20166;-87
2022/11/19 10:52:35;;;;;;;2.93;1.80;;;9.30;99.90;;;;;;5032667;28;20167;-86
2022/11/19 10:55:04;;;;;;;2.00;1.80;;;9.40;99.90;;;;;;5032664;28;20266;-86
2022/11/19 10:57:31;;;;;;;2.97;1.33;;;9.50;99.90;;;;;;5032874;28;20200;-86
2022/11/19 10:59:59;;;;;;;2.33;1.63;;;9.70;99.90;;;;;;5032665;28;20176;-86
2022/11/19 11:02:45;;;;;;;2.20;1.40;;;9.90;99.90;;;;;;5032495;28;20187;-87
2022/11/19 11:05:15;;;;;;;1.83;1.10;;;10.10;99.90;;;;;;5031821;28;20550;-86
2022/11/19 11:07:59;;;;;;;1.37;1.10;;;10.10;99.90;;;;;;5032307;28;20208;-86
2022/11/19 11:10:43;;;;;;;1.40;1.10;;;9.90;99.90;;;;;;5032354;28;20646;-86
2022/11/19 11:16:16;;;;;;;1.77;1.27;;;9.60;99.90;;;;;;5033781;28;20221;-86
2022/11/19 11:18:44;;;;;;;4.13;2.10;;;9.50;99.90;;;;;;5032174;28;20186;-86
2022/11/19 11:21:21;;;;;;;3.17;1.97;;;9.40;99.90;;;;;;5032199;28;20194;-87
2022/11/19 11:23:53;;;;;;;2.60;1.67;;;9.30;99.90;;;;;;5032215;28;20181;-86
2022/11/19 11:26:25;;;;;;;2.40;1.40;;;9.30;99.90;;;;;;5032088;28;20236;-87
2022/11/19 11:29:08;;;;;;;2.03;1.33;;;9.30;99.90;;;;;;5031904;28;20181;-87
2022/11/19 11:31:42;;;;;;;1.33;1.10;;;9.30;99.90;;;;;;5032019;28;20209;-86
2022/11/19 11:34:36;;;;;;;1.43;1.00;;;9.20;99.90;;;;;;5032087;28;20191;-87
2022/11/19 11:37:05;;;;;;;1.63;1.17;;;9.20;99.90;;;;;;5013826;28;20195;-86
2022/11/19 11:39:37;;;;;;;2.63;1.47;;;9.20;99.90;;;;;;5031781;28;20187;-86
2022/11/19 11:42:03;;;;;;;2.87;1.50;;;9.10;99.90;;;;;;5015742;28;20183;-87
2022/11/19 11:44:32;;;;;;;2.57;1.30;;;9.20;99.90;;;;;;5015110;28;20268;-86
2022/11/19 11:47:10;;;;;;;2.43;1.27;;;9.20;99.90;;;;;;5015022;28;20210;-86
2022/11/19 11:49:39;;;;;;;2.00;1.67;;;9.10;99.90;;;;;;5032048;28;20174;-87
2022/11/19 11:52:08;;;;;;;2.83;1.70;;;9.10;99.90;;;;;;5015559;28;20198;-86
2022/11/19 11:54:35;;;;;;;3.77;1.67;;;9.10;99.90;;;;;;5031548;28;20205;-86
2022/11/19 11:57:18;;;;;;;2.60;1.80;;;9.10;99.90;;;;;;5014969;28;20186;-86
2022/11/19 11:59:45;;;;;;;2.50;1.10;;;9.10;99.90;;;;;;5015335;28;20182;-86
2022/11/19 12:02:21;;;;;;;1.30;1.20;;;9.10;99.90;;;;;;5031556;28;20175;-87
2022/11/19 12:04:49;;;;;;;2.47;1.10;;;9.10;99.90;;;;;;5014923;28;20210;-86
2022/11/19 12:07:24;;;;;;;2.30;1.13;;;9.20;99.90;;;;;;5031715;28;20305;-87
2022/11/19 12:10:16;;;;;;;1.07;0.97;;;9.10;99.90;;;;;;5031206;28;20315;-86
2022/11/19 12:12:51;;;;;;;0.60;0.60;;;9.20;99.90;;;;;;5030900;28;20252;-86
2022/11/19 12:15:17;;;;;;;2.57;0.90;;;9.20;99.90;;;;;;5031633;28;20194;-87
2022/11/19 12:17:49;;;;;;;3.17;1.30;;;9.20;99.90;;;;;;5048042;28;20178;-86
2022/11/19 12:20:20;;;;;;;1.87;0.77;;;9.20;99.90;;;;;;5031365;28;20182;-86
2022/11/19 12:23:33;;;;;;;2.30;0.90;;;9.20;99.90;;;;;;5031390;28;20176;-86
2022/11/19 12:26:11;;;;;;;2.33;1.40;;;9.20;99.90;;;;;;5013744;28;20228;-86
2022/11/19 12:29:03;;;;;;;2.57;1.40;;;9.30;99.90;;;;;;5029625;28;20266;-86
2022/11/19 12:31:50;;;;;;;1.60;0.90;;;9.30;99.90;;;;;;5031390;28;20245;-87
2022/11/19 12:34:43;;;;;;;2.50;1.00;;;9.40;99.90;;;;;;5031532;28;20159;-87
2022/11/19 12:37:24;;;;;;;1.20;1.10;;;9.40;99.90;;;;;;5030992;28;20258;-86
2022/11/19 12:39:57;;;;;;;0.70;0.70;;;9.50;99.90;;;;;;5030573;28;20169;-86
2022/11/19 12:42:50;;;;;;;1.03;0.70;;;9.50;99.90;;;;;;5030999;28;20190;-86
2022/11/19 12:46:07;;;;;;;0.83;0.80;;;9.60;99.90;;;;;;5031360;28;20203;-86
2022/11/19 12:49:08;;;;;;;2.77;2.23;;;9.70;99.90;;;;;;5029938;28;20250;-87
2022/11/19 12:51:38;;;;;;;2.30;1.37;;;9.90;99.90;;;;;;5013590;28;20166;-87
2022/11/19 12:54:33;;;;;;;1.03;0.90;;;10.10;99.90;;;;;;5025848;28;20187;-86
2022/11/19 12:57:14;;;;;;;1.17;0.83;;;10.20;99.90;;;;;;5030857;28;20177;-86
2022/11/19 13:00:09;;;;;;;1.77;1.20;;;10.10;99.90;;;;;;5031550;28;20254;-87
2022/11/19 13:02:47;;;;;;;1.20;1.07;;;9.90;99.90;;;;;;5031301;28;20215;-87
2022/11/19 13:05:21;;;;;;;2.30;1.53;;;9.90;99.90;;;;;;5020933;28;20221;-87
2022/11/19 13:07:55;;;;;;;4.57;2.37;;;9.80;99.90;;;;;;5027702;28;20290;-86
2022/11/19 13:10:37;;;;;;;5.90;4.10;;;9.80;99.90;;;;;;5011607;28;20264;-87
2022/11/19 13:13:07;;;;;;;5.17;3.70;;;9.80;99.90;;;;;;5030896;28;20222;-87
2022/11/19 13:15:46;;;;;;;39.70;22.03;;;9.80;99.90;;;;;;5015131;28;20206;-86
2022/11/19 13:18:16;;;;;;;95.10;45.10;;;9.80;99.90;;;;;;5031018;28;20180;-87
2022/11/19 13:20:54;;;;;;;32.07;14.63;;;9.80;99.90;;;;;;5015166;28;20176;-87
2022/11/19 13:23:43;;;;;;;6.70;4.33;;;9.80;99.90;;;;;;5014916;28;20206;-87
2022/11/19 13:26:17;;;;;;;2.07;1.20;;;9.70;99.90;;;;;;5031271;28;20261;-87
2022/11/19 13:28:53;;;;;;;5.17;1.40;;;9.80;99.90;;;;;;5014457;28;20249;-87
2022/11/19 13:31:32;;;;;;;2.30;1.40;;;9.70;99.90;;;;;;5015026;28;20167;-86
2022/11/19 13:34:15;;;;;;;2.80;1.90;;;9.60;99.90;;;;;;5030810;28;20179;-87
2022/11/19 13:36:48;;;;;;;3.23;1.30;;;9.60;99.90;;;;;;5014343;28;20187;-86
2022/11/19 13:39:38;;;;;;;1.40;1.27;;;9.60;99.90;;;;;;5014973;28;20210;-86
2022/11/19 13:45:12;;;;;;;2.13;0.90;;;9.60;99.90;;;;;;5030586;28;20211;-86
2022/11/19 13:47:46;;;;;;;2.40;0.90;;;9.70;99.90;;;;;;5014039;28;20260;-87